createdAt,value
2018-08-10T13:40:18.418Z,21.7
2018-08-10T13:40:38.607Z,21.7
2018-08-10T13:40:58.856Z,21.7
2018-08-10T13:41:18.964Z,21.8
2018-08-10T13:41:39.173Z,21.8
2018-08-10T13:41:59.501Z,21.8
2018-08-10T13:42:19.841Z,21.8
2018-08-10T13:42:39.901Z,21.8
2018-08-10T13:43:00.755Z,21.8
2018-08-10T13:43:20.985Z,21.8
2018-08-10T13:43:41.290Z,21.9
2018-08-10T13:44:01.436Z,21.8
2018-08-10T13:44:21.738Z,21.9
2018-08-10T13:44:41.948Z,21.8
2018-08-10T13:45:02.196Z,21.8
2018-08-10T13:45:22.419Z,21.9
2018-08-10T13:45:42.658Z,21.8
2018-08-10T13:46:02.910Z,21.8
2018-08-10T13:46:23.162Z,21.8
2018-08-10T13:46:43.355Z,21.8
2018-08-10T13:47:03.542Z,21.9
2018-08-10T13:47:23.735Z,21.9
2018-08-10T13:47:43.927Z,21.8
2018-08-10T13:48:04.190Z,21.9
2018-08-10T13:48:24.764Z,21.9
2018-08-10T13:48:46.269Z,21.8
2018-08-10T13:49:06.841Z,21.9
2018-08-10T13:49:27.048Z,21.9
2018-08-10T13:49:47.203Z,21.9
2018-08-10T13:50:07.398Z,21.9
2018-08-10T13:50:27.584Z,21.9
2018-08-10T13:50:47.817Z,22
2018-08-10T13:51:08.059Z,22
2018-08-10T13:51:28.352Z,22
2018-08-10T13:51:48.542Z,22
2018-08-10T13:52:08.732Z,21.9
2018-08-10T13:52:28.929Z,22.1
2018-08-10T13:52:49.163Z,22.1
2018-08-10T13:53:09.370Z,22.1
2018-08-10T13:53:29.572Z,22
2018-08-10T13:53:49.773Z,22.1
2018-08-10T13:54:10.049Z,22.1
2018-08-10T13:54:30.258Z,22.2
2018-08-10T13:54:50.447Z,22.1
2018-08-10T13:55:10.665Z,22.1
2018-08-10T13:55:30.884Z,22.2
2018-08-10T13:55:51.154Z,22.3
2018-08-10T13:56:11.455Z,22.2
2018-08-10T13:56:31.670Z,22.3
2018-08-10T13:56:51.827Z,22.3
2018-08-10T13:57:12.066Z,22.3
2018-08-10T13:57:32.453Z,22.2
2018-08-10T13:57:52.663Z,22.2
2018-08-10T13:58:12.948Z,22.3
2018-08-10T13:58:33.057Z,22.3
2018-08-10T13:58:53.323Z,22.4
2018-08-10T13:59:13.720Z,22.4
2018-08-10T13:59:33.935Z,22.4
2018-08-10T13:59:54.132Z,22.4
2018-08-10T14:00:14.420Z,22.4
2018-08-10T14:00:34.654Z,22.4
2018-08-10T14:00:54.873Z,22.4
2018-08-10T14:01:15.083Z,22.3
2018-08-10T14:01:35.299Z,22.4
2018-08-10T14:01:55.511Z,22.4
2018-08-10T14:02:15.720Z,22.5
2018-08-10T14:02:36.023Z,22.5
2018-08-10T14:02:56.243Z,22.5
2018-08-10T14:03:16.529Z,22.5
2018-08-10T14:03:36.794Z,22.5
2018-08-10T14:03:57.014Z,22.5
2018-08-10T14:04:17.364Z,22.5
2018-08-10T14:04:38.052Z,22.5
2018-08-10T14:04:58.236Z,22.5
2018-08-10T14:05:18.432Z,22.5
2018-08-10T14:05:38.634Z,22.6
2018-08-10T14:05:58.980Z,22.6
2018-08-10T14:06:19.401Z,22.7
2018-08-10T14:06:39.548Z,22.6
2018-08-10T14:06:59.749Z,22.6
2018-08-10T14:07:20.013Z,22.7
2018-08-10T14:07:40.373Z,22.7
2018-08-10T14:08:00.635Z,22.8
2018-08-10T14:08:21.071Z,22.7
2018-08-10T14:08:41.246Z,22.7
2018-08-10T14:09:01.564Z,22.8
2018-08-10T14:09:21.858Z,22.8
2018-08-10T14:09:42.098Z,22.9
2018-08-10T14:10:02.331Z,22.8
2018-08-10T14:10:22.640Z,22.8
2018-08-10T14:10:42.901Z,22.9
2018-08-10T14:11:03.096Z,22.9
2018-08-10T14:11:23.267Z,22.8
2018-08-10T14:11:43.549Z,22.8
2018-08-10T14:12:03.905Z,22.8
2018-08-10T14:12:24.153Z,22.8
2018-08-10T14:12:44.357Z,22.8
2018-08-10T14:13:04.691Z,22.8
2018-08-10T14:13:24.902Z,22.9
2018-08-10T14:13:45.063Z,22.9
2018-08-10T14:14:05.231Z,22.8
2018-08-10T14:14:25.446Z,22.9
2018-08-10T14:14:45.742Z,22.9
2018-08-10T14:15:05.944Z,22.9
2018-08-10T14:15:26.167Z,22.8
2018-08-10T14:15:46.321Z,22.9
2018-08-10T14:16:07.102Z,22.8
2018-08-10T14:16:27.284Z,22.8
2018-08-10T14:16:47.508Z,22.9
2018-08-10T14:17:07.727Z,22.8
2018-08-10T14:17:27.971Z,22.9
2018-08-10T14:17:48.201Z,22.9
2018-08-10T14:18:08.426Z,22.8
2018-08-10T14:18:29.861Z,22.8
2018-08-10T14:18:50.039Z,22.9
2018-08-10T14:19:10.822Z,22.8
2018-08-10T14:19:31.121Z,22.8
2018-08-10T14:19:51.323Z,22.9
2018-08-10T14:20:11.507Z,22.9
2018-08-10T14:20:31.720Z,22.8
2018-08-10T14:20:52.037Z,22.9
2018-08-10T14:21:12.264Z,22.8
2018-08-10T14:21:32.454Z,22.8
2018-08-10T14:21:52.715Z,22.8
2018-08-10T14:22:12.910Z,22.8
2018-08-10T14:22:33.140Z,22.8
2018-08-10T14:22:53.373Z,22.8
2018-08-10T14:23:13.594Z,22.8
2018-08-10T14:23:33.768Z,22.9
2018-08-10T14:23:53.983Z,22.8
2018-08-10T14:24:14.194Z,22.8
2018-08-10T14:24:34.342Z,22.8
2018-08-10T14:24:54.523Z,22.8
2018-08-10T14:25:14.742Z,22.8
2018-08-10T14:25:34.921Z,22.8
2018-08-10T14:25:55.152Z,22.8
2018-08-10T14:26:15.376Z,22.9
2018-08-10T14:26:35.545Z,22.8
2018-08-10T14:26:55.723Z,22.8
2018-08-10T14:27:16.005Z,22.8
2018-08-10T14:27:36.183Z,22.8
2018-08-10T14:27:56.454Z,22.8
2018-08-10T14:28:16.651Z,22.8
2018-08-10T14:28:36.900Z,22.8
2018-08-10T14:28:57.099Z,22.8
2018-08-10T14:29:21.154Z,22.8
2018-08-10T14:29:41.339Z,22.8
2018-08-10T14:30:01.472Z,22.8
2018-08-10T14:30:21.759Z,22.8
2018-08-10T14:30:41.902Z,22.8
2018-08-10T14:31:02.149Z,22.8
2018-08-10T14:31:22.892Z,22.8
2018-08-10T14:31:43.045Z,22.8
2018-08-10T14:39:06.893Z,22.6
2018-08-10T14:39:27.998Z,22.6
2018-08-10T14:39:48.808Z,22.6
2018-08-10T14:40:09.606Z,22.6
2018-08-10T14:40:29.872Z,22.6
2018-08-10T14:40:50.988Z,22.6
2018-08-10T14:41:11.270Z,22.6
2018-08-10T14:41:31.372Z,22.6
2018-08-10T14:41:51.554Z,22.6
2018-08-10T14:42:11.763Z,22.6
2018-08-10T14:42:31.969Z,22.6
2018-08-10T14:42:52.184Z,22.6
2018-08-10T14:43:12.386Z,22.6
2018-08-10T14:43:32.580Z,22.6
2018-08-10T14:43:52.775Z,22.6
2018-08-10T14:44:12.956Z,22.7
2018-08-10T14:44:33.126Z,22.7
2018-08-10T14:44:53.295Z,22.6
2018-08-10T14:45:13.499Z,22.6
2018-08-10T14:45:33.656Z,22.6
2018-08-10T14:45:53.831Z,22.6
2018-08-10T14:46:14.120Z,22.6
2018-08-10T14:46:34.391Z,22.6
2018-08-10T14:46:54.744Z,22.7
2018-08-10T14:47:15.220Z,22.7
2018-08-10T14:47:35.346Z,22.6
2018-08-10T14:47:55.569Z,22.6
2018-08-10T14:52:58.576Z,22.6
2018-08-10T14:53:18.775Z,22.6
2018-08-10T14:53:39.015Z,22.6
2018-08-10T14:53:59.469Z,22.6
2018-08-10T14:54:19.656Z,22.6
2018-08-10T14:54:39.863Z,22.7
2018-08-10T14:55:00.037Z,22.6
2018-08-10T14:55:20.224Z,22.6
2018-08-10T14:55:40.435Z,22.7
2018-08-10T14:56:00.643Z,22.7
2018-08-10T14:56:20.880Z,22.6
2018-08-10T14:56:41.066Z,22.6
2018-08-10T14:57:01.274Z,22.6
2018-08-10T14:57:21.483Z,22.7
2018-08-10T14:57:41.711Z,22.6
2018-08-10T14:58:01.917Z,22.6
2018-08-10T14:58:22.101Z,22.7
2018-08-10T14:58:42.381Z,22.7
2018-08-10T14:59:02.583Z,22.6
2018-08-10T14:59:22.854Z,22.7
2018-08-10T14:59:43.081Z,22.6
2018-08-10T15:00:03.299Z,22.6
2018-08-10T15:00:23.520Z,22.7
2018-08-10T15:00:43.850Z,22.7
2018-08-10T15:01:04.151Z,22.6
2018-08-10T15:01:24.444Z,22.7
2018-08-10T15:01:44.640Z,22.8
2018-08-10T15:02:04.871Z,22.7
2018-08-10T15:02:25.155Z,22.6
2018-08-10T15:02:45.374Z,22.7
2018-08-10T15:03:05.610Z,22.7
2018-08-10T15:03:25.801Z,22.7
2018-08-10T15:03:45.996Z,22.7
2018-08-10T15:04:06.186Z,22.7
2018-08-10T15:04:26.352Z,22.7
2018-08-10T15:04:46.604Z,22.7
2018-08-10T15:05:06.840Z,22.7
2018-08-10T15:05:27.032Z,22.7
2018-08-10T15:05:47.199Z,22.7
2018-08-10T15:10:24.893Z,22.7
2018-08-10T15:10:45.185Z,22.6
2018-08-10T15:11:05.372Z,22.6
2018-08-10T15:11:25.512Z,22.8
2018-08-10T15:11:45.703Z,22.7
2018-08-10T15:12:05.979Z,22.6
2018-08-10T15:12:26.196Z,22.7
2018-08-10T15:12:46.953Z,22.7
2018-08-10T15:13:06.956Z,22.8
2018-08-10T15:13:27.000Z,22.7
2018-08-10T15:13:47.164Z,22.7
2018-08-10T15:14:07.360Z,22.7
2018-08-10T15:14:27.566Z,22.8
2018-08-10T15:14:47.859Z,22.7
2018-08-10T15:15:08.044Z,22.7
2018-08-10T15:15:28.187Z,22.7
2018-08-10T15:15:48.411Z,22.8
2018-08-10T15:16:08.601Z,22.8
2018-08-10T15:16:28.814Z,22.9
2018-08-10T15:16:48.990Z,22.8
2018-08-10T15:17:09.199Z,22.8
2018-08-10T15:17:29.350Z,22.9
2018-08-10T15:17:49.540Z,22.8
2018-08-10T15:18:09.860Z,22.9
2018-08-10T15:18:30.183Z,22.8
2018-08-10T15:18:50.471Z,22.8
2018-08-10T15:19:11.009Z,22.8
2018-08-10T15:19:31.393Z,22.8
2018-08-10T15:19:51.653Z,22.9
2018-08-10T15:20:11.874Z,22.8
2018-08-10T15:20:32.069Z,22.8
2018-08-10T15:20:52.260Z,22.8
2018-08-10T15:21:12.470Z,22.9
2018-08-10T15:21:32.677Z,22.9
2018-08-10T15:21:52.898Z,22.9
2018-08-10T15:22:13.212Z,22.9
2018-08-10T15:22:33.419Z,22.9
2018-08-10T15:22:53.657Z,23
2018-08-10T15:23:13.846Z,22.9
2018-08-10T15:23:34.091Z,22.9
2018-08-10T15:23:54.291Z,23
2018-08-10T15:24:14.493Z,23
2018-08-10T15:24:34.722Z,23
2018-08-10T15:24:54.949Z,23
2018-08-10T15:25:15.154Z,23
2018-08-10T15:25:35.346Z,23
2018-08-10T15:25:55.509Z,23
2018-08-10T15:26:15.712Z,23.1
2018-08-10T15:26:35.912Z,23.1
2018-08-10T15:26:56.143Z,23.1
2018-08-10T15:27:16.333Z,23.2
2018-08-10T15:27:36.546Z,23.2
2018-08-10T15:27:56.750Z,23.2
2018-08-10T15:28:17.018Z,23.3
2018-08-10T15:28:37.200Z,23.2
2018-08-10T15:28:57.409Z,23.2
2018-08-10T15:29:17.606Z,23.2
2018-08-10T15:29:37.810Z,23.2
2018-08-10T15:29:57.992Z,23.3
2018-08-10T15:30:18.267Z,23.2
2018-08-10T15:30:38.581Z,23.2
2018-08-10T15:30:58.745Z,23.2
2018-08-10T15:31:18.970Z,23.2
2018-08-10T15:31:39.195Z,23.2
2018-08-10T15:31:59.425Z,23.2
2018-08-10T15:32:20.209Z,23.2
2018-08-10T15:32:40.497Z,23.2
2018-08-10T15:33:00.796Z,23.2
2018-08-10T15:33:21.148Z,23.3
2018-08-10T15:33:41.459Z,23.2
2018-08-10T15:34:01.847Z,23.2
2018-08-10T15:34:22.102Z,23.2
2018-08-10T15:34:42.313Z,23.2
2018-08-10T15:35:02.531Z,23.3
2018-08-10T15:35:22.811Z,23.2
2018-08-10T15:35:43.080Z,23.2
2018-08-10T15:36:03.512Z,23.2
2018-08-10T15:36:23.821Z,23.3
2018-08-10T15:36:44.009Z,23.2
2018-08-10T15:37:04.202Z,23.2
2018-08-10T15:37:24.504Z,23.2
2018-08-10T15:37:44.738Z,23.3
2018-08-10T15:38:04.970Z,23.3
2018-08-10T15:38:25.382Z,23.2
2018-08-10T15:38:45.595Z,23.3
2018-08-10T15:39:05.795Z,23.3
2018-08-10T15:39:25.942Z,23.3
2018-08-10T15:39:46.190Z,23.3
2018-08-10T15:40:06.383Z,23.3
2018-08-10T15:40:26.599Z,23.3
2018-08-10T15:40:46.853Z,23.5
2018-08-10T15:41:07.067Z,23.4
2018-08-10T15:41:28.219Z,23.6
2018-08-10T15:41:48.523Z,23.7
2018-08-10T15:42:08.850Z,24
2018-08-10T15:42:29.059Z,24.1
2018-08-10T15:42:49.310Z,24.4
2018-08-10T15:43:09.580Z,24.6
2018-08-10T15:43:29.882Z,24.8
2018-08-10T15:43:50.110Z,24.9
2018-08-10T15:44:10.335Z,25.1
2018-08-10T15:44:30.621Z,25.4
2018-08-10T15:44:50.836Z,25.5
2018-08-10T15:45:11.024Z,25.8
2018-08-10T15:45:31.272Z,25.8
2018-08-10T15:45:51.496Z,26.1
2018-08-10T15:46:11.718Z,26.1
2018-08-10T15:46:31.910Z,26.2
2018-08-10T15:46:52.233Z,26.3
2018-08-10T15:47:12.453Z,26.3
2018-08-10T15:47:32.649Z,26.2
2018-08-10T15:47:52.881Z,26.2
2018-08-10T15:48:13.092Z,26.2
2018-08-10T15:48:33.301Z,26.2
2018-08-10T15:48:53.507Z,26.1
2018-08-10T15:49:13.802Z,26.1
2018-08-10T15:49:33.971Z,26.1
2018-08-10T15:49:54.374Z,26.1
2018-08-10T15:50:14.618Z,26
2018-08-10T15:50:34.863Z,25.9
2018-08-10T15:50:55.104Z,25.9
2018-08-10T15:51:15.347Z,25.9
2018-08-10T15:51:35.549Z,25.8
2018-08-10T15:51:55.853Z,25.7
2018-08-10T15:52:16.116Z,25.7
2018-08-10T15:52:36.319Z,25.6
2018-08-10T15:52:56.498Z,25.6
2018-08-10T15:53:16.693Z,25.5
2018-08-10T15:53:36.899Z,25.5
2018-08-10T15:53:57.114Z,25.5
2018-08-10T15:54:17.312Z,25.4
2018-08-10T15:54:37.533Z,25.3
2018-08-10T15:54:57.764Z,25.3
2018-08-10T15:55:18.065Z,25.4
2018-08-10T15:55:38.341Z,25.3
2018-08-10T15:55:58.635Z,25.3
2018-08-10T15:56:18.992Z,25.2
2018-08-10T15:56:39.052Z,25.1
2018-08-10T15:56:59.302Z,25.2
2018-08-10T15:57:19.571Z,25.1
2018-08-10T15:57:39.803Z,25
2018-08-10T15:58:00.024Z,25.1
2018-08-10T15:58:20.228Z,25
2018-08-10T15:58:40.434Z,25.1
2018-08-10T15:59:00.631Z,25
2018-08-10T15:59:20.828Z,25
2018-08-10T15:59:41.035Z,25.1
2018-08-10T16:00:01.264Z,25.1
2018-08-10T16:00:21.464Z,25.1
2018-08-10T16:00:41.672Z,25.1
2018-08-10T16:01:01.951Z,25.2
2018-08-10T16:01:22.225Z,25.3
2018-08-10T16:01:42.400Z,25.3
2018-08-10T16:02:02.554Z,25.3
2018-08-10T16:02:22.764Z,25.4
2018-08-10T16:02:43.065Z,25.4
2018-08-10T16:03:03.289Z,25.3
2018-08-10T16:03:23.508Z,25.3
2018-08-10T16:03:43.781Z,25.3
2018-08-10T16:04:03.993Z,25.4
2018-08-10T16:04:24.204Z,25.3
2018-08-10T16:04:44.539Z,25.2
2018-08-10T16:05:04.773Z,25.2
2018-08-10T16:05:24.966Z,25.2
2018-08-10T16:05:45.152Z,25.1
2018-08-10T16:06:05.344Z,25
2018-08-10T16:06:25.563Z,25
2018-08-10T16:06:45.756Z,25
2018-08-10T16:07:06.623Z,24.9
2018-08-10T16:07:26.822Z,24.9
2018-08-10T16:07:47.576Z,24.9
2018-08-10T16:08:07.761Z,24.9
2018-08-10T16:08:27.999Z,24.8
2018-08-10T16:08:48.177Z,24.8
2018-08-10T16:09:09.849Z,24.9
2018-08-10T16:09:29.994Z,24.8
2018-08-10T16:09:50.201Z,24.8
2018-08-10T16:10:10.327Z,24.7
2018-08-10T16:10:30.502Z,24.7
2018-08-10T16:10:50.684Z,24.6
2018-08-10T16:11:10.911Z,24.6
2018-08-10T16:11:31.080Z,24.5
2018-08-10T16:11:51.256Z,24.5
2018-08-10T16:12:11.577Z,24.5
2018-08-10T16:12:31.726Z,24.5
2018-08-10T16:12:51.966Z,24.4
2018-08-10T16:21:30.719Z,23.7
2018-08-10T16:21:50.902Z,23.7
2018-08-10T16:22:11.110Z,23.7
2018-08-10T16:22:31.329Z,23.7
2018-08-10T16:22:51.546Z,23.7
2018-08-10T16:23:11.740Z,23.7
2018-08-10T16:23:31.926Z,23.6
2018-08-10T16:23:52.084Z,23.6
2018-08-10T16:24:12.309Z,23.6
2018-08-10T16:24:32.517Z,23.6
2018-08-10T16:24:52.653Z,23.6
2018-08-10T16:25:12.849Z,23.7
2018-08-10T16:25:32.997Z,23.7
2018-08-10T16:25:53.176Z,23.6
